Date,TemperatureHighF,TemperatureAvgF,TemperatureLowF,DewpointHighF,DewpointAvgF,DewpointLowF,HumidityHigh,HumidityAvg,HumidityLow,PressureMaxIn,PressureMinIn,WindSpeedMaxMPH,WindSpeedAvgMPH,GustSpeedMaxMPH,PrecipitationSumIn
2013-2-1,44,36,25,37,29,19,78,76,75,30.60,30.04,8,0,21,0.00
2013-2-2,47,33,18,40,27,13,81,77,75,30.63,30.18,3,0,9,0.00
2013-2-3,54,42,34,47,35,27,78,76,74,30.18,29.96,3,0,9,0.00
2013-2-4,54,39,26,47,32,20,78,76,75,30.32,30.15,2,0,5,0.00
2013-2-5,66,48,39,60,41,32,80,77,75,30.17,29.94,2,0,6,0.00
2013-2-6,69,45,30,63,38,23,80,77,73,30.46,30.14,3,0,6,0.00
2013-2-7,51,43,36,44,36,29,77,76,73,30.51,30.15,3,0,6,0.30
2013-2-8,59,47,41,52,40,32,79,75,71,30.20,29.90,4,0,12,0.77
2013-2-9,60,40,28,54,34,22,79,77,75,30.56,30.19,5,0,9,0.00
2013-2-10,59,40,24,52,33,18,79,77,75,30.67,30.36,4,0,8,0.02
2013-2-11,64,55,44,57,48,37,79,77,74,30.36,30.00,4,0,10,0.05
2013-2-12,67,55,46,61,48,39,80,78,75,30.21,30.04,5,0,5,0.00
2013-2-13,49,47,43,42,39,36,77,75,72,30.09,29.76,1,0,6,0.31
2013-2-14,57,42,32,50,35,25,78,76,72,30.25,29.98,3,0,10,0.00
2013-2-15,69,46,29,63,39,22,80,77,72,30.28,30.01,4,0,8,0.00
2013-2-16,44,37,32,37,30,25,76,75,73,30.13,30.01,3,0,4,0.31
2013-2-17,43,31,23,36,25,18,79,76,75,30.50,30.10,5,0,12,0.10
2013-2-18,58,36,17,51,29,12,81,78,75,30.63,30.39,3,0,8,0.02
2013-2-19,54,44,33,47,36,26,78,76,73,30.43,29.98,4,0,14,0.06
2013-2-20,59,42,28,52,36,22,79,76,73,30.32,30.10,2,0,9,0.00
2013-2-21,61,42,24,54,35,18,79,77,75,30.43,30.20,2,0,7,0.00
2013-2-22,42,37,32,35,30,25,77,75,73,30.53,30.31,3,0,6,0.36
2013-2-23,44,41,37,37,32,29,75,72,71,30.31,29.94,0,0,3,0.35
2013-2-24,71,52,39,65,45,32,81,76,71,30.21,29.93,4,0,11,0.14
2013-2-25,45,38,33,38,32,26,76,76,75,30.39,30.21,4,0,6,0.03
2013-2-26,58,46,35,50,38,28,77,75,72,30.32,29.67,8,0,10,0.03
2013-2-27,68,53,43,62,46,35,80,77,72,29.91,29.75,8,0,12,0.02
2013-2-28,52,44,33,45,36,26,77,76,73,30.04,29.86,4,0,7,0.01